sensor_id;sensor_type;location;lat;lon;timestamp;temperature;humidity
4293;DHT22;2160;51.172;6.808;2023-07-31T04:03:07;19.80;99.90
4293;DHT22;2160;51.172;6.808;2023-07-31T04:05:38;19.90;99.90
4293;DHT22;2160;51.172;6.808;2023-07-31T04:08:06;19.90;99.90
4293;DHT22;2160;51.172;6.808;2023-07-31T04:10:33;19.90;99.90
4293;DHT22;2160;51.172;6.808;2023-07-31T04:13:00;19.90;99.90
4293;DHT22;2160;51.172;6.808;2023-07-31T04:15:27;19.70;99.90
4293;DHT22;2160;51.172;6.808;2023-07-31T04:17:54;19.70;99.90
4293;DHT22;2160;51.172;6.808;2023-07-31T04:20:22;19.90;99.90
4293;DHT22;2160;51.172;6.808;2023-07-31T04:22:49;19.90;99.90
4293;DHT22;2160;51.172;6.808;2023-07-31T04:25:16;19.90;99.90
4293;DHT22;2160;51.172;6.808;2023-07-31T04:27:43;19.80;99.90
4293;DHT22;2160;51.172;6.808;2023-07-31T04:30:10;19.70;99.90
4293;DHT22;2160;51.172;6.808;2023-07-31T04:32:38;19.80;99.90
4293;DHT22;2160;51.172;6.808;2023-07-31T04:35:05;19.90;99.90
4293;DHT22;2160;51.172;6.808;2023-07-31T04:37:33;20.10;99.90
4293;DHT22;2160;51.172;6.808;2023-07-31T04:40:00;20.20;99.90
4293;DHT22;2160;51.172;6.808;2023-07-31T04:42:27;20.30;99.90
4293;DHT22;2160;51.172;6.808;2023-07-31T04:44:54;20.30;99.90
4293;DHT22;2160;51.172;6.808;2023-07-31T04:47:21;20.20;99.90
4293;DHT22;2160;51.172;6.808;2023-07-31T04:49:48;20.00;99.90
4293;DHT22;2160;51.172;6.808;2023-07-31T04:52:15;20.20;99.90
4293;DHT22;2160;51.172;6.808;2023-07-31T04:54:43;20.40;99.90
4293;DHT22;2160;51.172;6.808;2023-07-31T04:57:10;20.50;99.90
4293;DHT22;2160;51.172;6.808;2023-07-31T04:59:37;20.60;99.90
4293;DHT22;2160;51.172;6.808;2023-07-31T05:02:05;20.60;99.90
4293;DHT22;2160;51.172;6.808;2023-07-31T05:04:32;20.60;99.90
4293;DHT22;2160;51.172;6.808;2023-07-31T05:06:59;20.60;99.90
4293;DHT22;2160;51.172;6.808;2023-07-31T05:09:26;20.50;99.90
4293;DHT22;2160;51.172;6.808;2023-07-31T05:11:54;20.70;99.90
4293;DHT22;2160;51.172;6.808;2023-07-31T05:14:21;20.50;99.90
4293;DHT22;2160;51.172;6.808;2023-07-31T05:16:48;20.30;99.90
4293;DHT22;2160;51.172;6.808;2023-07-31T05:19:15;20.40;99.90
4293;DHT22;2160;51.172;6.808;2023-07-31T05:21:42;20.40;99.90
4293;DHT22;2160;51.172;6.808;2023-07-31T05:24:10;20.50;99.90
4293;DHT22;2160;51.172;6.808;2023-07-31T05:26:37;20.40;99.90
4293;DHT22;2160;51.172;6.808;2023-07-31T05:29:05;20.60;99.90
4293;DHT22;2160;51.172;6.808;2023-07-31T05:31:32;20.60;99.90
4293;DHT22;2160;51.172;6.808;2023-07-31T05:33:59;20.60;99.90
4293;DHT22;2160;51.172;6.808;2023-07-31T05:36:26;20.60;99.90
4293;DHT22;2160;51.172;6.808;2023-07-31T05:38:53;20.70;99.90
4293;DHT22;2160;51.172;6.808;2023-07-31T05:41:20;20.50;99.90
4293;DHT22;2160;51.172;6.808;2023-07-31T05:43:47;20.50;99.90
4293;DHT22;2160;51.172;6.808;2023-07-31T05:46:15;20.60;99.90
4293;DHT22;2160;51.172;6.808;2023-07-31T05:48:42;20.60;99.90
4293;DHT22;2160;51.172;6.808;2023-07-31T05:51:09;20.60;99.90
4293;DHT22;2160;51.172;6.808;2023-07-31T05:53:36;20.60;99.90
4293;DHT22;2160;51.172;6.808;2023-07-31T05:56:06;20.70;99.90
4293;DHT22;2160;51.172;6.808;2023-07-31T05:58:33;20.60;99.90
4293;DHT22;2160;51.172;6.808;2023-07-31T06:01:00;20.40;99.90
4293;DHT22;2160;51.172;6.808;2023-07-31T06:03:28;20.30;99.90
4293;DHT22;2160;51.172;6.808;2023-07-31T06:05:56;20.30;99.90
4293;DHT22;2160;51.172;6.808;2023-07-31T06:08:23;20.50;99.90
4293;DHT22;2160;51.172;6.808;2023-07-31T06:10:50;20.40;99.90
4293;DHT22;2160;51.172;6.808;2023-07-31T06:13:17;20.50;99.90
4293;DHT22;2160;51.172;6.808;2023-07-31T06:15:43;20.40;99.90
4293;DHT22;2160;51.172;6.808;2023-07-31T06:18:10;20.30;99.90
4293;DHT22;2160;51.172;6.808;2023-07-31T06:20:40;20.50;99.90
4293;DHT22;2160;51.172;6.808;2023-07-31T06:23:08;20.30;99.90
4293;DHT22;2160;51.172;6.808;2023-07-31T06:25:34;20.20;99.90
4293;DHT22;2160;51.172;6.808;2023-07-31T06:28:02;20.30;99.90
4293;DHT22;2160;51.172;6.808;2023-07-31T06:30:29;20.10;99.90
4293;DHT22;2160;51.172;6.808;2023-07-31T06:32:55;20.10;99.90
4293;DHT22;2160;51.172;6.808;2023-07-31T06:35:22;20.00;99.90
4293;DHT22;2160;51.172;6.808;2023-07-31T06:37:51;20.10;99.90
4293;DHT22;2160;51.172;6.808;2023-07-31T06:40:18;20.00;99.90
4293;DHT22;2160;51.172;6.808;2023-07-31T06:42:44;20.00;99.90
4293;DHT22;2160;51.172;6.808;2023-07-31T06:45:11;20.10;99.90
4293;DHT22;2160;51.172;6.808;2023-07-31T06:47:38;20.20;99.90
4293;DHT22;2160;51.172;6.808;2023-07-31T06:50:07;20.20;99.90
4293;DHT22;2160;51.172;6.808;2023-07-31T06:52:34;20.50;99.90
4293;DHT22;2160;51.172;6.808;2023-07-31T06:55:04;20.50;99.90
4293;DHT22;2160;51.172;6.808;2023-07-31T06:57:42;20.30;99.90
4293;DHT22;2160;51.172;6.808;2023-07-31T07:00:10;20.20;99.90
4293;DHT22;2160;51.172;6.808;2023-07-31T07:02:37;20.30;99.90
4293;DHT22;2160;51.172;6.808;2023-07-31T07:05:04;20.00;99.90
4293;DHT22;2160;51.172;6.808;2023-07-31T07:07:32;20.20;99.90
4293;DHT22;2160;51.172;6.808;2023-07-31T07:09:59;20.20;99.90
4293;DHT22;2160;51.172;6.808;2023-07-31T07:12:29;20.10;99.90
4293;DHT22;2160;51.172;6.808;2023-07-31T07:14:57;20.20;99.90
4293;DHT22;2160;51.172;6.808;2023-07-31T07:17:24;20.10;99.90
4293;DHT22;2160;51.172;6.808;2023-07-31T07:19:51;20.10;99.90
4293;DHT22;2160;51.172;6.808;2023-07-31T07:22:18;20.30;99.90
4293;DHT22;2160;51.172;6.808;2023-07-31T07:24:45;20.30;99.90
4293;DHT22;2160;51.172;6.808;2023-07-31T07:27:12;20.50;99.90
4293;DHT22;2160;51.172;6.808;2023-07-31T07:29:40;20.70;99.90
4293;DHT22;2160;51.172;6.808;2023-07-31T07:32:07;20.60;99.90
4293;DHT22;2160;51.172;6.808;2023-07-31T07:34:34;20.40;99.90
4293;DHT22;2160;51.172;6.808;2023-07-31T07:37:01;20.20;99.90
4293;DHT22;2160;51.172;6.808;2023-07-31T07:39:28;20.00;99.90
4293;DHT22;2160;51.172;6.808;2023-07-31T07:41:55;20.00;99.90
4293;DHT22;2160;51.172;6.808;2023-07-31T07:44:22;20.10;99.90
4293;DHT22;2160;51.172;6.808;2023-07-31T07:46:50;20.00;99.90
4293;DHT22;2160;51.172;6.808;2023-07-31T07:49:18;20.10;99.90
4293;DHT22;2160;51.172;6.808;2023-07-31T07:51:45;20.00;99.90
4293;DHT22;2160;51.172;6.808;2023-07-31T07:54:11;20.10;99.90
4293;DHT22;2160;51.172;6.808;2023-07-31T07:56:38;20.00;99.90
4293;DHT22;2160;51.172;6.808;2023-07-31T07:59:05;20.00;99.90
4293;DHT22;2160;51.172;6.808;2023-07-31T08:01:32;19.90;99.90
4293;DHT22;2160;51.172;6.808;2023-07-31T08:04:01;19.80;99.90
4293;DHT22;2160;51.172;6.808;2023-07-31T08:06:28;19.60;99.90
4293;DHT22;2160;51.172;6.808;2023-07-31T08:08:56;19.70;99.90
4293;DHT22;2160;51.172;6.808;2023-07-31T08:11:23;19.70;99.90
4293;DHT22;2160;51.172;6.808;2023-07-31T08:13:50;19.70;99.90
4293;DHT22;2160;51.172;6.808;2023-07-31T08:16:17;19.80;99.90
4293;DHT22;2160;51.172;6.808;2023-07-31T08:18:44;19.70;99.90
4293;DHT22;2160;51.172;6.808;2023-07-31T08:21:12;19.80;99.90
4293;DHT22;2160;51.172;6.808;2023-07-31T08:23:39;19.70;99.90
4293;DHT22;2160;51.172;6.808;2023-07-31T08:26:06;19.60;99.90
4293;DHT22;2160;51.172;6.808;2023-07-31T08:28:33;19.60;99.90
4293;DHT22;2160;51.172;6.808;2023-07-31T08:31:02;19.80;99.90
4293;DHT22;2160;51.172;6.808;2023-07-31T08:33:29;20.20;99.90
4293;DHT22;2160;51.172;6.808;2023-07-31T08:35:56;19.90;99.90
4293;DHT22;2160;51.172;6.808;2023-07-31T08:38:25;19.90;99.90
4293;DHT22;2160;51.172;6.808;2023-07-31T08:40:52;20.20;99.90
4293;DHT22;2160;51.172;6.808;2023-07-31T08:43:20;20.40;99.90
4293;DHT22;2160;51.172;6.808;2023-07-31T08:45:50;20.30;99.90
4293;DHT22;2160;51.172;6.808;2023-07-31T08:48:18;20.20;99.90
4293;DHT22;2160;51.172;6.808;2023-07-31T08:50:45;20.00;99.90
4293;DHT22;2160;51.172;6.808;2023-07-31T08:53:12;20.00;99.90
4293;DHT22;2160;51.172;6.808;2023-07-31T08:55:41;19.80;99.90
4293;DHT22;2160;51.172;6.808;2023-07-31T08:58:09;19.80;99.90
4293;DHT22;2160;51.172;6.808;2023-07-31T09:00:37;19.90;99.90
4293;DHT22;2160;51.172;6.808;2023-07-31T09:03:09;19.90;99.90
4293;DHT22;2160;51.172;6.808;2023-07-31T09:05:36;20.10;99.90
4293;DHT22;2160;51.172;6.808;2023-07-31T09:08:06;19.90;99.90
4293;DHT22;2160;51.172;6.808;2023-07-31T09:10:34;19.90;99.90
4293;DHT22;2160;51.172;6.808;2023-07-31T09:13:03;20.10;99.90
4293;DHT22;2160;51.172;6.808;2023-07-31T09:15:31;20.10;99.90
4293;DHT22;2160;51.172;6.808;2023-07-31T09:18:02;19.90;99.90
4293;DHT22;2160;51.172;6.808;2023-07-31T09:20:29;19.90;99.90
4293;DHT22;2160;51.172;6.808;2023-07-31T09:23:05;20.10;99.90
4293;DHT22;2160;51.172;6.808;2023-07-31T09:25:32;20.40;99.90
4293;DHT22;2160;51.172;6.808;2023-07-31T09:28:01;20.40;99.90
4293;DHT22;2160;51.172;6.808;2023-07-31T09:30:29;20.40;99.90
4293;DHT22;2160;51.172;6.808;2023-07-31T09:33:00;20.30;99.90
4293;DHT22;2160;51.172;6.808;2023-07-31T09:35:29;20.30;99.90
4293;DHT22;2160;51.172;6.808;2023-07-31T09:37:58;20.40;99.90
4293;DHT22;2160;51.172;6.808;2023-07-31T09:40:27;20.10;99.90
4293;DHT22;2160;51.172;6.808;2023-07-31T09:42:56;20.20;99.90
4293;DHT22;2160;51.172;6.808;2023-07-31T09:45:24;20.20;99.90
4293;DHT22;2160;51.172;6.808;2023-07-31T09:47:53;20.10;99.90
4293;DHT22;2160;51.172;6.808;2023-07-31T09:50:21;20.00;99.90
4293;DHT22;2160;51.172;6.808;2023-07-31T09:52:48;19.90;99.90
4293;DHT22;2160;51.172;6.808;2023-07-31T09:55:16;20.10;99.90
4293;DHT22;2160;51.172;6.808;2023-07-31T09:57:45;19.90;99.90
4293;DHT22;2160;51.172;6.808;2023-07-31T10:00:13;19.80;99.90
4293;DHT22;2160;51.172;6.808;2023-07-31T10:02:45;19.80;99.90
4293;DHT22;2160;51.172;6.808;2023-07-31T10:05:14;20.10;99.90
4293;DHT22;2160;51.172;6.808;2023-07-31T10:07:45;20.10;99.90
4293;DHT22;2160;51.172;6.808;2023-07-31T10:10:15;20.20;99.90
4293;DHT22;2160;51.172;6.808;2023-07-31T10:12:44;20.00;99.90
4293;DHT22;2160;51.172;6.808;2023-07-31T10:15:13;20.00;99.90
4293;DHT22;2160;51.172;6.808;2023-07-31T10:17:41;20.10;99.90
4293;DHT22;2160;51.172;6.808;2023-07-31T10:20:09;20.20;99.90
4293;DHT22;2160;51.172;6.808;2023-07-31T10:22:38;20.00;99.90
4293;DHT22;2160;51.172;6.808;2023-07-31T10:25:08;20.10;99.90
4293;DHT22;2160;51.172;6.808;2023-07-31T10:27:35;20.20;99.90
4293;DHT22;2160;51.172;6.808;2023-07-31T10:30:04;20.40;99.90
4293;DHT22;2160;51.172;6.808;2023-07-31T10:32:32;20.40;99.90
4293;DHT22;2160;51.172;6.808;2023-07-31T10:35:01;20.30;99.90
4293;DHT22;2160;51.172;6.808;2023-07-31T10:37:29;20.30;99.90
4293;DHT22;2160;51.172;6.808;2023-07-31T10:40:04;20.40;99.90
4293;DHT22;2160;51.172;6.808;2023-07-31T10:42:32;20.60;99.90
4293;DHT22;2160;51.172;6.808;2023-07-31T10:45:02;21.10;99.90
4293;DHT22;2160;51.172;6.808;2023-07-31T10:47:30;21.50;99.90
4293;DHT22;2160;51.172;6.808;2023-07-31T10:50:13;21.70;99.90
4293;DHT22;2160;51.172;6.808;2023-07-31T10:52:42;22.10;99.90
4293;DHT22;2160;51.172;6.808;2023-07-31T10:55:23;21.80;99.90
4293;DHT22;2160;51.172;6.808;2023-07-31T10:57:50;21.70;99.90
4293;DHT22;2160;51.172;6.808;2023-07-31T11:00:22;21.40;99.90
4293;DHT22;2160;51.172;6.808;2023-07-31T11:03:00;21.10;99.90
4293;DHT22;2160;51.172;6.808;2023-07-31T11:05:49;21.10;99.90
4293;DHT22;2160;51.172;6.808;2023-07-31T11:08:18;21.30;99.90
4293;DHT22;2160;51.172;6.808;2023-07-31T11:10:49;21.50;99.90
4293;DHT22;2160;51.172;6.808;2023-07-31T11:13:16;21.60;99.90
4293;DHT22;2160;51.172;6.808;2023-07-31T11:15:43;21.40;99.90
4293;DHT22;2160;51.172;6.808;2023-07-31T11:18:10;21.40;99.90
4293;DHT22;2160;51.172;6.808;2023-07-31T11:20:37;21.50;99.90
4293;DHT22;2160;51.172;6.808;2023-07-31T11:23:07;21.50;99.90
4293;DHT22;2160;51.172;6.808;2023-07-31T11:25:35;21.50;99.90
4293;DHT22;2160;51.172;6.808;2023-07-31T11:28:05;21.50;99.90
4293;DHT22;2160;51.172;6.808;2023-07-31T11:30:33;21.50;99.90
4293;DHT22;2160;51.172;6.808;2023-07-31T11:33:01;21.60;99.90
4293;DHT22;2160;51.172;6.808;2023-07-31T11:35:31;21.60;99.90
4293;DHT22;2160;51.172;6.808;2023-07-31T11:37:58;21.40;99.90
4293;DHT22;2160;51.172;6.808;2023-07-31T11:40:25;21.40;99.90
4293;DHT22;2160;51.172;6.808;2023-07-31T11:42:56;21.30;99.90
4293;DHT22;2160;51.172;6.808;2023-07-31T11:45:26;21.20;99.90
4293;DHT22;2160;51.172;6.808;2023-07-31T11:47:55;21.60;99.90
4293;DHT22;2160;51.172;6.808;2023-07-31T11:50:23;21.70;99.90
4293;DHT22;2160;51.172;6.808;2023-07-31T11:52:54;21.60;99.90
4293;DHT22;2160;51.172;6.808;2023-07-31T11:55:23;21.30;99.90
4293;DHT22;2160;51.172;6.808;2023-07-31T11:57:50;21.30;99.90
4293;DHT22;2160;51.172;6.808;2023-07-31T12:00:18;21.30;99.90
4293;DHT22;2160;51.172;6.808;2023-07-31T12:02:47;21.60;99.90
4293;DHT22;2160;51.172;6.808;2023-07-31T12:05:14;21.40;99.90
4293;DHT22;2160;51.172;6.808;2023-07-31T12:07:46;21.50;99.90
4293;DHT22;2160;51.172;6.808;2023-07-31T12:10:23;21.50;99.90
4293;DHT22;2160;51.172;6.808;2023-07-31T12:12:56;21.50;99.90
4293;DHT22;2160;51.172;6.808;2023-07-31T12:15:32;21.70;99.90
4293;DHT22;2160;51.172;6.808;2023-07-31T12:18:04;21.50;99.90
4293;DHT22;2160;51.172;6.808;2023-07-31T12:20:32;21.20;99.90
4293;DHT22;2160;51.172;6.808;2023-07-31T12:22:59;21.30;99.90
4293;DHT22;2160;51.172;6.808;2023-07-31T12:25:30;21.40;99.90
4293;DHT22;2160;51.172;6.808;2023-07-31T12:27:58;21.60;99.90
4293;DHT22;2160;51.172;6.808;2023-07-31T12:30:32;21.60;99.90
4293;DHT22;2160;51.172;6.808;2023-07-31T12:33:04;21.20;99.90
4293;DHT22;2160;51.172;6.808;2023-07-31T12:35:40;21.10;99.90
4293;DHT22;2160;51.172;6.808;2023-07-31T12:38:07;21.20;99.90
4293;DHT22;2160;51.172;6.808;2023-07-31T12:40:37;21.50;99.90
4293;DHT22;2160;51.172;6.808;2023-07-31T12:43:04;21.60;99.90
4293;DHT22;2160;51.172;6.808;2023-07-31T12:45:31;22.00;99.90
4293;DHT22;2160;51.172;6.808;2023-07-31T12:47:58;22.00;99.90
4293;DHT22;2160;51.172;6.808;2023-07-31T12:50:27;21.90;99.90
4293;DHT22;2160;51.172;6.808;2023-07-31T12:52:54;21.90;99.90
4293;DHT22;2160;51.172;6.808;2023-07-31T12:55:21;22.00;99.90
4293;DHT22;2160;51.172;6.808;2023-07-31T12:57:49;22.20;99.90
4293;DHT22;2160;51.172;6.808;2023-07-31T13:00:16;22.30;99.90
4293;DHT22;2160;51.172;6.808;2023-07-31T13:02:43;22.00;99.90
4293;DHT22;2160;51.172;6.808;2023-07-31T13:05:10;22.40;99.90
4293;DHT22;2160;51.172;6.808;2023-07-31T13:07:40;22.60;99.90
4293;DHT22;2160;51.172;6.808;2023-07-31T13:10:08;22.60;99.90
4293;DHT22;2160;51.172;6.808;2023-07-31T13:12:35;22.70;99.90
4293;DHT22;2160;51.172;6.808;2023-07-31T13:15:02;22.60;99.90
4293;DHT22;2160;51.172;6.808;2023-07-31T13:17:29;22.40;99.90
4293;DHT22;2160;51.172;6.808;2023-07-31T13:19:56;22.20;99.90
4293;DHT22;2160;51.172;6.808;2023-07-31T13:22:23;22.40;99.90
4293;DHT22;2160;51.172;6.808;2023-07-31T13:24:51;22.20;99.90
4293;DHT22;2160;51.172;6.808;2023-07-31T13:27:19;22.40;99.90
4293;DHT22;2160;51.172;6.808;2023-07-31T13:29:47;22.90;99.90
4293;DHT22;2160;51.172;6.808;2023-07-31T13:32:15;23.30;99.90
4293;DHT22;2160;51.172;6.808;2023-07-31T13:34:42;23.40;99.90
4293;DHT22;2160;51.172;6.808;2023-07-31T13:37:08;23.50;99.90
4293;DHT22;2160;51.172;6.808;2023-07-31T13:39:35;23.90;99.90
4293;DHT22;2160;51.172;6.808;2023-07-31T13:42:05;24.40;99.90
4293;DHT22;2160;51.172;6.808;2023-07-31T13:44:33;24.20;99.90
4293;DHT22;2160;51.172;6.808;2023-07-31T13:47:00;24.10;99.90
4293;DHT22;2160;51.172;6.808;2023-07-31T13:49:27;24.10;99.90
4293;DHT22;2160;51.172;6.808;2023-07-31T13:51:55;24.00;99.90
4293;DHT22;2160;51.172;6.808;2023-07-31T13:54:22;24.00;99.90
4293;DHT22;2160;51.172;6.808;2023-07-31T13:56:49;23.90;99.90
4293;DHT22;2160;51.172;6.808;2023-07-31T13:59:18;23.90;99.90
4293;DHT22;2160;51.172;6.808;2023-07-31T14:01:47;24.00;99.90
4293;DHT22;2160;51.172;6.808;2023-07-31T14:04:14;23.80;99.90
4293;DHT22;2160;51.172;6.808;2023-07-31T14:06:41;23.50;99.90
4293;DHT22;2160;51.172;6.808;2023-07-31T14:09:08;23.20;99.90
4293;DHT22;2160;51.172;6.808;2023-07-31T14:11:35;23.10;99.90
4293;DHT22;2160;51.172;6.808;2023-07-31T14:14:02;22.60;99.90
4293;DHT22;2160;51.172;6.808;2023-07-31T14:16:31;22.70;99.90
4293;DHT22;2160;51.172;6.808;2023-07-31T14:18:58;22.80;99.90
4293;DHT22;2160;51.172;6.808;2023-07-31T14:21:25;22.80;99.90
4293;DHT22;2160;51.172;6.808;2023-07-31T14:23:52;22.60;99.90
4293;DHT22;2160;51.172;6.808;2023-07-31T14:26:19;22.80;99.90
4293;DHT22;2160;51.172;6.808;2023-07-31T14:28:46;22.80;99.90
4293;DHT22;2160;51.172;6.808;2023-07-31T14:31:13;22.90;99.90
4293;DHT22;2160;51.172;6.808;2023-07-31T14:33:42;22.80;99.90
4293;DHT22;2160;51.172;6.808;2023-07-31T14:36:09;22.90;99.90
4293;DHT22;2160;51.172;6.808;2023-07-31T14:38:36;23.10;99.90
4293;DHT22;2160;51.172;6.808;2023-07-31T14:41:03;23.10;99.90
4293;DHT22;2160;51.172;6.808;2023-07-31T14:43:30;22.90;99.90
4293;DHT22;2160;51.172;6.808;2023-07-31T14:45:57;23.20;99.90
4293;DHT22;2160;51.172;6.808;2023-07-31T14:48:25;23.30;99.90
4293;DHT22;2160;51.172;6.808;2023-07-31T14:50:54;23.50;99.90
4293;DHT22;2160;51.172;6.808;2023-07-31T14:53:21;23.30;99.90
4293;DHT22;2160;51.172;6.808;2023-07-31T14:55:48;23.40;99.90
4293;DHT22;2160;51.172;6.808;2023-07-31T14:58:15;23.60;99.90
4293;DHT22;2160;51.172;6.808;2023-07-31T15:00:43;23.30;99.90
4293;DHT22;2160;51.172;6.808;2023-07-31T15:03:10;23.20;99.90
4293;DHT22;2160;51.172;6.808;2023-07-31T15:05:37;23.40;99.90
4293;DHT22;2160;51.172;6.808;2023-07-31T15:08:06;23.40;99.90
4293;DHT22;2160;51.172;6.808;2023-07-31T15:10:33;22.90;99.90
4293;DHT22;2160;51.172;6.808;2023-07-31T15:13:00;22.80;99.90
4293;DHT22;2160;51.172;6.808;2023-07-31T15:15:28;22.70;99.90
4293;DHT22;2160;51.172;6.808;2023-07-31T15:17:55;22.70;99.90
4293;DHT22;2160;51.172;6.808;2023-07-31T15:20:22;22.60;99.90
4293;DHT22;2160;51.172;6.808;2023-07-31T15:22:49;22.80;99.90
4293;DHT22;2160;51.172;6.808;2023-07-31T15:25:18;22.80;99.90
4293;DHT22;2160;51.172;6.808;2023-07-31T15:27:45;22.70;99.90
4293;DHT22;2160;51.172;6.808;2023-07-31T15:30:12;22.80;99.90
4293;DHT22;2160;51.172;6.808;2023-07-31T15:32:39;22.80;99.90
4293;DHT22;2160;51.172;6.808;2023-07-31T15:35:06;22.80;99.90
4293;DHT22;2160;51.172;6.808;2023-07-31T15:37:33;22.80;99.90
4293;DHT22;2160;51.172;6.808;2023-07-31T15:40:00;22.80;99.90
4293;DHT22;2160;51.172;6.808;2023-07-31T15:42:29;22.70;99.90
4293;DHT22;2160;51.172;6.808;2023-07-31T15:44:59;22.90;99.90
4293;DHT22;2160;51.172;6.808;2023-07-31T15:47:26;23.00;99.90
4293;DHT22;2160;51.172;6.808;2023-07-31T15:49:53;22.80;99.90
4293;DHT22;2160;51.172;6.808;2023-07-31T15:52:20;22.60;99.90
4293;DHT22;2160;51.172;6.808;2023-07-31T15:54:47;22.70;99.90
4293;DHT22;2160;51.172;6.808;2023-07-31T15:57:14;22.70;99.90
4293;DHT22;2160;51.172;6.808;2023-07-31T15:59:42;22.60;99.90
4293;DHT22;2160;51.172;6.808;2023-07-31T16:02:11;22.30;99.90
4293;DHT22;2160;51.172;6.808;2023-07-31T16:04:38;22.20;99.90
4293;DHT22;2160;51.172;6.808;2023-07-31T16:07:05;22.10;99.90
4293;DHT22;2160;51.172;6.808;2023-07-31T16:09:32;22.30;99.90
4293;DHT22;2160;51.172;6.808;2023-07-31T16:11:59;22.10;99.90
4293;DHT22;2160;51.172;6.808;2023-07-31T16:14:26;22.10;99.90
4293;DHT22;2160;51.172;6.808;2023-07-31T16:16:54;22.00;99.90
4293;DHT22;2160;51.172;6.808;2023-07-31T16:19:21;22.00;99.90
4293;DHT22;2160;51.172;6.808;2023-07-31T16:21:48;21.80;99.90
4293;DHT22;2160;51.172;6.808;2023-07-31T16:24:15;21.80;99.90
4293;DHT22;2160;51.172;6.808;2023-07-31T16:26:42;21.90;99.90
4293;DHT22;2160;51.172;6.808;2023-07-31T16:29:09;22.00;99.90
4293;DHT22;2160;51.172;6.808;2023-07-31T16:31:36;21.70;99.90
4293;DHT22;2160;51.172;6.808;2023-07-31T16:34:04;21.80;99.90
4293;DHT22;2160;51.172;6.808;2023-07-31T16:36:31;21.60;99.90
4293;DHT22;2160;51.172;6.808;2023-07-31T16:38:58;21.40;99.90
4293;DHT22;2160;51.172;6.808;2023-07-31T16:41:25;21.30;99.90
4293;DHT22;2160;51.172;6.808;2023-07-31T16:43:52;21.50;99.90
4293;DHT22;2160;51.172;6.808;2023-07-31T16:46:19;21.40;99.90
4293;DHT22;2160;51.172;6.808;2023-07-31T16:48:46;21.50;99.90
4293;DHT22;2160;51.172;6.808;2023-07-31T16:51:16;21.60;99.90
4293;DHT22;2160;51.172;6.808;2023-07-31T16:53:43;21.70;99.90
4293;DHT22;2160;51.172;6.808;2023-07-31T16:56:10;21.70;99.90
4293;DHT22;2160;51.172;6.808;2023-07-31T16:58:37;21.50;99.90
4293;DHT22;2160;51.172;6.808;2023-07-31T17:01:04;21.30;99.90
4293;DHT22;2160;51.172;6.808;2023-07-31T17:03:31;21.40;99.90
4293;DHT22;2160;51.172;6.808;2023-07-31T17:05:58;21.40;99.90
4293;DHT22;2160;51.172;6.808;2023-07-31T17:08:26;21.70;99.90
4293;DHT22;2160;51.172;6.808;2023-07-31T17:10:54;21.70;99.90
4293;DHT22;2160;51.172;6.808;2023-07-31T17:13:21;21.70;99.90
4293;DHT22;2160;51.172;6.808;2023-07-31T17:15:47;21.50;99.90
4293;DHT22;2160;51.172;6.808;2023-07-31T17:18:14;21.40;99.90
4293;DHT22;2160;51.172;6.808;2023-07-31T17:20:41;21.30;99.90
4293;DHT22;2160;51.172;6.808;2023-07-31T17:23:08;21.30;99.90
4293;DHT22;2160;51.172;6.808;2023-07-31T17:25:39;21.60;99.90
4293;DHT22;2160;51.172;6.808;2023-07-31T17:28:06;21.80;99.90
4293;DHT22;2160;51.172;6.808;2023-07-31T17:30:33;21.70;99.90
4293;DHT22;2160;51.172;6.808;2023-07-31T17:33:00;21.50;99.90
4293;DHT22;2160;51.172;6.808;2023-07-31T17:35:26;21.60;99.90
4293;DHT22;2160;51.172;6.808;2023-07-31T17:37:55;21.70;99.90
4293;DHT22;2160;51.172;6.808;2023-07-31T17:40:22;21.60;99.90
4293;DHT22;2160;51.172;6.808;2023-07-31T17:42:50;21.40;99.90
4293;DHT22;2160;51.172;6.808;2023-07-31T17:45:17;21.30;99.90
4293;DHT22;2160;51.172;6.808;2023-07-31T17:47:44;21.00;99.90
4293;DHT22;2160;51.172;6.808;2023-07-31T17:50:11;21.10;99.90
4293;DHT22;2160;51.172;6.808;2023-07-31T17:52:38;21.00;99.90
4293;DHT22;2160;51.172;6.808;2023-07-31T17:55:06;21.00;99.90
4293;DHT22;2160;51.172;6.808;2023-07-31T17:57:33;21.00;99.90
4293;DHT22;2160;51.172;6.808;2023-07-31T18:00:03;20.90;99.90
4293;DHT22;2160;51.172;6.808;2023-07-31T18:02:32;21.00;99.90
4293;DHT22;2160;51.172;6.808;2023-07-31T18:05:01;20.90;99.90
4293;DHT22;2160;51.172;6.808;2023-07-31T18:07:28;20.80;99.90
4293;DHT22;2160;51.172;6.808;2023-07-31T18:09:55;20.60;99.90
4293;DHT22;2160;51.172;6.808;2023-07-31T18:12:22;20.50;99.90
4293;DHT22;2160;51.172;6.808;2023-07-31T18:14:49;20.70;99.90
4293;DHT22;2160;51.172;6.808;2023-07-31T18:17:17;20.70;99.90
4293;DHT22;2160;51.172;6.808;2023-07-31T18:19:44;20.50;99.90
4293;DHT22;2160;51.172;6.808;2023-07-31T18:22:11;20.50;99.90
4293;DHT22;2160;51.172;6.808;2023-07-31T18:24:39;20.30;99.90
4293;DHT22;2160;51.172;6.808;2023-07-31T18:27:06;20.30;99.90
4293;DHT22;2160;51.172;6.808;2023-07-31T18:29:33;20.20;99.90
4293;DHT22;2160;51.172;6.808;2023-07-31T18:32:01;20.50;99.90
4293;DHT22;2160;51.172;6.808;2023-07-31T18:34:29;20.20;99.90
4293;DHT22;2160;51.172;6.808;2023-07-31T18:36:56;20.30;99.90
4293;DHT22;2160;51.172;6.808;2023-07-31T18:39:23;20.30;99.90
4293;DHT22;2160;51.172;6.808;2023-07-31T18:41:50;20.20;99.90
4293;DHT22;2160;51.172;6.808;2023-07-31T18:44:17;20.40;99.90
4293;DHT22;2160;51.172;6.808;2023-07-31T18:46:44;20.20;99.90
4293;DHT22;2160;51.172;6.808;2023-07-31T18:49:11;20.10;99.90
4293;DHT22;2160;51.172;6.808;2023-07-31T18:51:40;20.00;99.90
4293;DHT22;2160;51.172;6.808;2023-07-31T18:54:07;20.00;99.90
4293;DHT22;2160;51.172;6.808;2023-07-31T18:56:34;19.90;99.90
4293;DHT22;2160;51.172;6.808;2023-07-31T18:59:01;19.70;99.90
4293;DHT22;2160;51.172;6.808;2023-07-31T19:01:28;19.80;99.90
4293;DHT22;2160;51.172;6.808;2023-07-31T19:03:55;20.00;99.90
4293;DHT22;2160;51.172;6.808;2023-07-31T19:06:24;20.10;99.90
4293;DHT22;2160;51.172;6.808;2023-07-31T19:08:53;20.00;99.90
4293;DHT22;2160;51.172;6.808;2023-07-31T19:11:20;20.10;99.90
4293;DHT22;2160;51.172;6.808;2023-07-31T19:13:47;20.20;99.90
4293;DHT22;2160;51.172;6.808;2023-07-31T19:16:14;20.20;99.90
4293;DHT22;2160;51.172;6.808;2023-07-31T19:18:42;20.20;99.90
4293;DHT22;2160;51.172;6.808;2023-07-31T19:21:09;20.10;99.90
4293;DHT22;2160;51.172;6.808;2023-07-31T19:23:36;20.20;99.90
4293;DHT22;2160;51.172;6.808;2023-07-31T19:26:05;20.20;99.90
4293;DHT22;2160;51.172;6.808;2023-07-31T19:28:32;20.50;99.90
4293;DHT22;2160;51.172;6.808;2023-07-31T19:30:59;20.40;99.90
4293;DHT22;2160;51.172;6.808;2023-07-31T19:33:26;20.40;99.90
4293;DHT22;2160;51.172;6.808;2023-07-31T19:35:53;20.30;99.90
4293;DHT22;2160;51.172;6.808;2023-07-31T19:38:21;20.30;99.90
4293;DHT22;2160;51.172;6.808;2023-07-31T19:40:48;20.30;99.90
4293;DHT22;2160;51.172;6.808;2023-07-31T19:43:17;20.20;99.90
4293;DHT22;2160;51.172;6.808;2023-07-31T19:45:44;20.10;99.90
4293;DHT22;2160;51.172;6.808;2023-07-31T19:48:11;20.10;99.90
4293;DHT22;2160;51.172;6.808;2023-07-31T19:50:38;20.00;99.90
4293;DHT22;2160;51.172;6.808;2023-07-31T19:53:05;20.10;99.90
4293;DHT22;2160;51.172;6.808;2023-07-31T19:55:32;20.10;99.90
4293;DHT22;2160;51.172;6.808;2023-07-31T19:57:59;20.00;99.90
4293;DHT22;2160;51.172;6.808;2023-07-31T20:00:27;20.20;99.90
4293;DHT22;2160;51.172;6.808;2023-07-31T20:02:54;20.20;99.90
4293;DHT22;2160;51.172;6.808;2023-07-31T20:05:21;20.20;99.90
4293;DHT22;2160;51.172;6.808;2023-07-31T20:07:48;20.20;99.90